createdAt,value
2022-08-16T00:00:04.283Z,16.35
2022-08-16T00:02:13.021Z,16.33
2022-08-16T00:04:16.918Z,16.34
2022-08-16T00:06:20.931Z,16.34
2022-08-16T00:08:36.200Z,16.33
2022-08-16T00:10:41.494Z,16.32
2022-08-16T00:12:45.970Z,16.32
2022-08-16T00:14:49.725Z,16.33
2022-08-16T00:17:00.528Z,16.33
2022-08-16T00:19:18.610Z,16.32
2022-08-16T00:21:22.632Z,16.30
2022-08-16T00:23:34.534Z,16.26
2022-08-16T00:26:34.304Z,16.24
2022-08-16T00:28:09.046Z,16.22
2022-08-16T00:30:19.798Z,16.19
2022-08-16T00:32:33.088Z,16.16
2022-08-16T00:34:43.465Z,16.12
2022-08-16T00:36:49.629Z,16.08
2022-08-16T00:38:59.432Z,16.06
2022-08-16T00:41:05.951Z,16.05
2022-08-16T00:43:19.197Z,16.07
2022-08-16T00:45:29.194Z,16.07
2022-08-16T00:47:49.608Z,16.09
2022-08-16T00:49:56.613Z,16.07
2022-08-16T00:52:00.880Z,16.06
2022-08-16T00:54:06.342Z,16.02
2022-08-16T00:56:55.978Z,15.99
2022-08-16T00:58:40.933Z,15.96
2022-08-16T01:00:53.944Z,15.94
2022-08-16T01:02:58.560Z,15.96
2022-08-16T01:05:09.692Z,15.96
2022-08-16T01:07:17.520Z,15.97
2022-08-16T01:09:22.837Z,15.97
2022-08-16T01:11:27.932Z,15.96
2022-08-16T01:13:36.156Z,15.92
2022-08-16T01:15:44.619Z,15.88
2022-08-16T01:17:56.037Z,15.92
2022-08-16T01:20:24.207Z,15.87
2022-08-16T01:22:47.147Z,15.88
2022-08-16T01:24:55.941Z,15.93
2022-08-16T01:27:05.476Z,15.92
2022-08-16T01:29:14.048Z,15.93
2022-08-16T01:31:20.020Z,15.94
2022-08-16T01:33:35.830Z,15.96
2022-08-16T01:35:43.431Z,15.99
2022-08-16T01:37:54.114Z,16.00
2022-08-16T01:40:02.947Z,16.00
2022-08-16T01:42:13.215Z,15.99
2022-08-16T01:44:18.614Z,15.97
2022-08-16T01:46:37.424Z,15.97
2022-08-16T01:49:01.368Z,15.96
2022-08-16T01:51:09.391Z,15.95
2022-08-16T01:53:20.919Z,15.94
2022-08-16T01:55:41.505Z,15.95
2022-08-16T01:57:53.592Z,15.94
2022-08-16T02:00:00.305Z,15.90
2022-08-16T02:02:27.134Z,15.89
2022-08-16T02:04:48.258Z,15.84
2022-08-16T02:06:55.688Z,15.83
2022-08-16T02:08:59.695Z,15.82
2022-08-16T02:11:08.704Z,15.82
2022-08-16T02:13:12.941Z,15.81
2022-08-16T02:15:25.330Z,15.78
2022-08-16T02:17:29.599Z,15.74
2022-08-16T02:19:59.330Z,15.71
2022-08-16T02:22:08.745Z,15.73
2022-08-16T02:24:32.833Z,15.72
2022-08-16T02:26:46.576Z,15.69
2022-08-16T02:28:54.328Z,15.65
2022-08-16T02:31:00.300Z,15.62
2022-08-16T02:33:04.909Z,15.63
2022-08-16T02:35:10.131Z,15.61
2022-08-16T02:37:16.455Z,15.60
2022-08-16T02:39:26.073Z,15.58
2022-08-16T02:41:37.387Z,15.55
2022-08-16T02:43:44.553Z,15.53
2022-08-16T02:45:48.625Z,15.50
2022-08-16T02:48:01.087Z,15.46
2022-08-16T02:50:54.697Z,15.48
2022-08-16T02:52:43.796Z,15.47
2022-08-16T02:54:48.247Z,15.46
2022-08-16T02:57:00.110Z,15.46
2022-08-16T02:59:11.685Z,15.45
2022-08-16T03:01:25.103Z,15.47
2022-08-16T03:04:41.263Z,15.48
2022-08-16T03:06:38.940Z,15.43
2022-08-16T03:08:51.754Z,15.41
2022-08-16T03:10:59.360Z,15.36
2022-08-16T03:13:03.556Z,15.34
2022-08-16T03:15:17.982Z,15.34
2022-08-16T03:17:21.924Z,15.33
2022-08-16T03:19:48.357Z,15.32
2022-08-16T03:21:58.137Z,15.32
2022-08-16T03:24:03.119Z,15.30
2022-08-16T03:26:07.177Z,15.29
2022-08-16T03:28:11.245Z,15.28
2022-08-16T03:30:21.143Z,15.31
2022-08-16T03:32:35.022Z,15.28
2022-08-16T03:34:39.494Z,15.25
2022-08-16T03:36:43.237Z,15.20
2022-08-16T03:38:47.394Z,15.17
2022-08-16T03:40:52.928Z,15.15
2022-08-16T03:43:18.433Z,15.15
2022-08-16T03:45:27.353Z,15.16
2022-08-16T03:47:35.387Z,15.12
2022-08-16T03:49:41.114Z,15.08
2022-08-16T03:51:47.500Z,15.06
2022-08-16T03:54:01.330Z,15.04
2022-08-16T03:56:19.695Z,15.03
2022-08-16T03:58:25.936Z,14.97
2022-08-16T04:00:35.929Z,14.85
2022-08-16T04:02:49.375Z,14.83
2022-08-16T04:04:55.338Z,14.83
2022-08-16T04:07:00.877Z,14.82
2022-08-16T04:09:07.605Z,14.83
2022-08-16T04:11:17.304Z,14.84
2022-08-16T04:13:59.150Z,14.85
2022-08-16T04:15:48.198Z,14.83
2022-08-16T04:18:02.172Z,14.81
2022-08-16T04:20:24.060Z,14.78
2022-08-16T04:22:33.690Z,14.74
2022-08-16T04:24:39.447Z,14.72
2022-08-16T04:26:46.074Z,14.71
2022-08-16T04:29:14.729Z,14.69
2022-08-16T04:31:16.954Z,14.74
2022-08-16T04:33:27.499Z,14.74
2022-08-16T04:35:34.522Z,14.77
2022-08-16T04:37:42.354Z,14.78
2022-08-16T04:40:11.803Z,14.77
2022-08-16T04:42:26.136Z,14.74
2022-08-16T04:44:53.936Z,14.75
2022-08-16T04:47:03.227Z,14.76
2022-08-16T04:49:22.930Z,14.74
2022-08-16T04:51:26.691Z,14.72
2022-08-16T04:53:41.515Z,14.68
2022-08-16T04:55:46.033Z,14.64
2022-08-16T04:57:58.088Z,14.58
2022-08-16T05:00:30.377Z,14.55
2022-08-16T05:02:42.335Z,14.53
2022-08-16T05:04:46.915Z,14.51
2022-08-16T05:06:50.634Z,14.53
2022-08-16T05:09:13.798Z,14.52
2022-08-16T05:11:20.451Z,14.51
2022-08-16T05:13:39.805Z,14.51
2022-08-16T05:15:45.100Z,14.52
2022-08-16T05:17:55.538Z,14.53
2022-08-16T05:20:38.822Z,14.52
2022-08-16T05:22:30.343Z,14.54
2022-08-16T05:24:38.155Z,14.52
2022-08-16T05:26:51.393Z,14.50
2022-08-16T05:28:57.866Z,14.48
2022-08-16T05:31:02.002Z,14.49
2022-08-16T05:33:16.723Z,14.47
2022-08-16T05:35:24.493Z,14.45
2022-08-16T05:38:03.527Z,14.44
2022-08-16T05:40:27.411Z,14.48
2022-08-16T05:42:47.763Z,14.46
2022-08-16T05:44:53.699Z,14.47
2022-08-16T05:47:00.609Z,14.47
2022-08-16T05:49:09.303Z,14.47
2022-08-16T05:51:37.590Z,14.47
2022-08-16T05:53:40.467Z,14.48
2022-08-16T05:55:48.117Z,14.47
2022-08-16T05:57:52.487Z,14.48
2022-08-16T05:59:59.996Z,14.45
2022-08-16T06:02:16.130Z,14.45
2022-08-16T06:04:36.554Z,14.41
2022-08-16T06:06:56.204Z,14.44
2022-08-16T06:09:02.250Z,14.41
2022-08-16T06:11:10.519Z,14.41
2022-08-16T06:13:15.812Z,14.40
2022-08-16T06:15:23.042Z,14.38
2022-08-16T06:17:41.739Z,14.35
2022-08-16T06:19:48.814Z,14.35
2022-08-16T06:21:56.094Z,14.33
2022-08-16T06:24:01.183Z,14.31
2022-08-16T06:26:09.766Z,14.30
2022-08-16T06:28:35.657Z,14.29
2022-08-16T06:30:45.054Z,14.28
2022-08-16T06:32:51.017Z,14.28
2022-08-16T06:35:02.661Z,14.26
2022-08-16T06:37:09.458Z,14.22
2022-08-16T06:39:14.844Z,14.23
2022-08-16T06:41:39.411Z,14.21
2022-08-16T06:43:47.774Z,14.19
2022-08-16T06:45:59.311Z,14.20
2022-08-16T06:48:07.309Z,14.17
2022-08-16T06:50:22.028Z,14.20
2022-08-16T06:52:59.923Z,14.24
2022-08-16T06:55:00.066Z,14.28
2022-08-16T06:57:03.939Z,14.26
2022-08-16T06:59:09.286Z,14.28
2022-08-16T07:01:44.303Z,14.31
2022-08-16T07:03:55.403Z,14.32
2022-08-16T07:06:06.867Z,14.34
2022-08-16T07:08:19.378Z,14.35
2022-08-16T07:10:25.726Z,14.37
2022-08-16T07:12:46.893Z,14.37
2022-08-16T07:14:51.017Z,14.39
2022-08-16T07:16:59.035Z,14.39
2022-08-16T07:19:04.205Z,14.43
2022-08-16T07:21:15.594Z,14.44
2022-08-16T07:23:19.619Z,14.43
2022-08-16T07:25:28.596Z,14.41
2022-08-16T07:27:33.580Z,14.40
2022-08-16T07:29:41.546Z,14.44
2022-08-16T07:31:46.278Z,14.43
2022-08-16T07:33:55.011Z,14.43
2022-08-16T07:36:05.870Z,14.39
2022-08-16T07:38:19.919Z,14.42
2022-08-16T07:40:56.314Z,14.44
2022-08-16T07:42:53.642Z,14.41
2022-08-16T07:44:58.149Z,14.36
2022-08-16T07:47:02.175Z,14.36
2022-08-16T07:49:11.352Z,14.34
2022-08-16T07:51:17.745Z,14.32
2022-08-16T07:53:23.234Z,14.35
2022-08-16T07:55:27.655Z,14.35
2022-08-16T07:57:36.283Z,14.39
2022-08-16T07:59:45.604Z,14.46
2022-08-16T08:01:53.121Z,14.57
2022-08-16T08:03:59.723Z,14.66
2022-08-16T08:06:11.931Z,14.76
2022-08-16T08:08:50.934Z,14.89
2022-08-16T08:10:41.185Z,15.09
2022-08-16T08:12:47.572Z,15.30
2022-08-16T08:14:51.868Z,15.49
2022-08-16T08:16:55.662Z,15.58
2022-08-16T08:19:12.553Z,15.74
2022-08-16T08:21:26.309Z,15.90
2022-08-16T08:23:44.314Z,16.09
2022-08-16T08:25:54.895Z,16.19
2022-08-16T08:28:03.014Z,16.32
2022-08-16T08:30:49.058Z,16.54
2022-08-16T08:32:58.397Z,16.83
2022-08-16T08:35:03.270Z,17.04
2022-08-16T08:37:09.295Z,17.18
2022-08-16T08:39:15.601Z,17.25
2022-08-16T08:41:29.080Z,17.33
2022-08-16T08:43:41.363Z,17.42
2022-08-16T08:45:48.487Z,17.48
2022-08-16T08:47:58.448Z,17.45
2022-08-16T08:50:08.043Z,17.28
2022-08-16T08:52:13.562Z,17.11
2022-08-16T08:54:37.457Z,16.96
2022-08-16T08:56:45.436Z,16.95
2022-08-16T08:59:13.287Z,17.00
2022-08-16T09:01:31.970Z,17.07
2022-08-16T09:03:41.883Z,17.10
2022-08-16T09:05:49.630Z,17.01
2022-08-16T09:08:01.986Z,16.88
2022-08-16T09:10:33.833Z,16.80
2022-08-16T09:12:46.574Z,16.69
2022-08-16T09:14:58.960Z,16.60
2022-08-16T09:17:21.624Z,16.45
2022-08-16T09:19:32.185Z,16.40
2022-08-16T09:21:38.393Z,16.34
2022-08-16T09:23:43.589Z,16.32
2022-08-16T09:25:51.701Z,16.24
2022-08-16T09:28:02.762Z,16.22
2022-08-16T09:30:34.294Z,16.16
2022-08-16T09:32:39.558Z,16.10
2022-08-16T09:34:51.387Z,16.11
2022-08-16T09:36:58.205Z,16.12
2022-08-16T09:39:04.288Z,16.10
2022-08-16T09:41:15.003Z,16.06
2022-08-16T09:43:58.301Z,16.06
2022-08-16T09:45:48.263Z,16.06
2022-08-16T09:47:56.255Z,16.13
2022-08-16T09:50:01.597Z,16.21
2022-08-16T09:52:06.350Z,16.26
2022-08-16T09:54:17.217Z,16.29
2022-08-16T09:56:28.736Z,16.27
2022-08-16T09:58:40.701Z,16.16
2022-08-16T10:01:00.999Z,16.22
2022-08-16T10:03:06.017Z,16.26
2022-08-16T10:05:12.985Z,16.28
2022-08-16T10:07:18.453Z,16.33
2022-08-16T10:09:23.798Z,16.37
2022-08-16T10:11:50.559Z,16.42
2022-08-16T10:13:56.554Z,16.48
2022-08-16T10:16:03.019Z,16.51
2022-08-16T10:18:56.228Z,16.51
2022-08-16T10:20:35.530Z,16.54
2022-08-16T10:22:41.575Z,16.50
2022-08-16T10:24:55.951Z,16.52
2022-08-16T10:27:26.365Z,16.62
2022-08-16T10:30:00.870Z,16.59
2022-08-16T10:31:53.719Z,16.72
2022-08-16T10:33:57.895Z,16.80
2022-08-16T10:36:04.175Z,16.83
2022-08-16T10:38:09.595Z,16.82
2022-08-16T10:40:31.280Z,16.83
2022-08-16T10:42:35.312Z,16.85
2022-08-16T10:44:42.517Z,16.85
2022-08-16T10:46:46.219Z,16.86
2022-08-16T10:48:50.349Z,16.88
2022-08-16T10:50:59.036Z,16.99
2022-08-16T10:53:07.496Z,16.98
2022-08-16T10:57:36.975Z,16.78
2022-08-16T10:59:54.475Z,16.84
2022-08-16T11:05:05.532Z,16.86
2022-08-16T11:09:25.786Z,16.93
2022-08-16T11:11:33.499Z,16.99
2022-08-16T11:16:25.287Z,17.02
2022-08-16T11:19:02.896Z,17.01
2022-08-16T11:20:53.001Z,17.06
2022-08-16T11:22:56.955Z,17.07
2022-08-16T11:26:07.113Z,16.97
2022-08-16T11:27:35.668Z,16.88
2022-08-16T11:29:39.702Z,16.87
2022-08-16T11:31:53.927Z,16.87
2022-08-16T11:33:57.966Z,16.91
2022-08-16T11:38:51.137Z,17.01
2022-08-16T11:40:53.168Z,17.05
2022-08-16T11:42:57.222Z,17.10
2022-08-16T11:45:01.066Z,17.11
2022-08-16T11:47:07.498Z,17.12
2022-08-16T11:49:13.683Z,17.12
2022-08-16T11:51:18.395Z,17.11
2022-08-16T11:53:24.468Z,17.08
2022-08-16T11:55:28.229Z,17.06
2022-08-16T11:57:32.191Z,17.01
2022-08-16T11:59:36.643Z,16.99
2022-08-16T12:01:55.298Z,16.94
2022-08-16T12:04:05.285Z,16.85
2022-08-16T12:06:24.995Z,16.83
2022-08-16T12:08:33.912Z,16.80
2022-08-16T12:10:39.750Z,16.73
2022-08-16T12:12:44.730Z,16.70
2022-08-16T12:14:52.242Z,16.71
2022-08-16T12:17:00.271Z,16.70
2022-08-16T12:19:10.581Z,16.72
2022-08-16T12:21:17.563Z,16.71
2022-08-16T12:23:23.668Z,16.71
2022-08-16T12:25:30.100Z,16.70
2022-08-16T12:27:33.687Z,16.68
2022-08-16T12:29:41.284Z,16.66
2022-08-16T12:32:00.630Z,16.69
2022-08-16T12:34:10.303Z,16.75
2022-08-16T12:36:23.848Z,16.82
2022-08-16T12:38:41.716Z,16.86
2022-08-16T12:40:55.506Z,16.87
2022-08-16T12:43:02.148Z,16.88
2022-08-16T12:45:11.579Z,16.87
2022-08-16T12:47:38.208Z,16.92
2022-08-16T12:49:43.864Z,16.91
2022-08-16T12:51:58.060Z,16.85
2022-08-16T12:54:07.602Z,16.82
2022-08-16T12:56:13.257Z,16.83
2022-08-16T12:58:49.202Z,16.90
2022-08-16T13:00:42.123Z,16.98
2022-08-16T13:02:46.851Z,17.07
2022-08-16T13:04:52.146Z,17.16
2022-08-16T13:06:59.785Z,17.22
2022-08-16T13:09:18.544Z,17.22
2022-08-16T13:11:31.128Z,17.17
2022-08-16T13:13:35.650Z,17.15
2022-08-16T13:15:55.699Z,17.14
2022-08-16T13:18:23.951Z,17.19
2022-08-16T13:20:30.646Z,17.25
2022-08-16T13:22:34.640Z,17.30
2022-08-16T13:24:38.677Z,17.29
2022-08-16T13:26:42.502Z,17.31
2022-08-16T13:28:47.949Z,17.35
2022-08-16T13:30:54.825Z,17.43
2022-08-16T13:32:59.397Z,17.49
2022-08-16T13:35:04.923Z,17.57
2022-08-16T13:37:10.843Z,17.54
2022-08-16T13:39:14.747Z,17.61
2022-08-16T13:41:19.746Z,17.73
2022-08-16T13:43:23.612Z,17.83
2022-08-16T13:45:28.239Z,17.81
2022-08-16T13:47:40.064Z,17.78
2022-08-16T13:49:46.843Z,17.80
2022-08-16T13:51:50.875Z,17.86
2022-08-16T13:54:02.701Z,17.93
2022-08-16T13:56:07.345Z,17.96
2022-08-16T13:58:37.334Z,17.98
2022-08-16T14:00:38.455Z,17.92
2022-08-16T14:02:43.479Z,17.92
2022-08-16T14:04:47.549Z,17.85
2022-08-16T14:07:10.704Z,17.88
2022-08-16T14:09:15.933Z,17.86
2022-08-16T14:11:24.697Z,17.79
2022-08-16T14:13:28.758Z,17.82
2022-08-16T14:15:33.465Z,17.77
2022-08-16T14:18:17.451Z,17.77
2022-08-16T14:20:03.223Z,17.82
2022-08-16T14:22:15.224Z,17.84
2022-08-16T14:24:36.675Z,17.90
2022-08-16T14:26:41.721Z,17.90
2022-08-16T14:28:50.811Z,17.84
2022-08-16T14:30:57.045Z,17.77
2022-08-16T14:33:01.567Z,17.76
2022-08-16T14:35:09.149Z,17.77
2022-08-16T14:37:13.337Z,17.70
2022-08-16T14:39:17.265Z,17.68
2022-08-16T14:41:22.532Z,17.63
2022-08-16T14:43:29.704Z,17.60
2022-08-16T14:45:34.691Z,17.54
2022-08-16T14:47:38.917Z,17.50
2022-08-16T14:49:44.008Z,17.44
2022-08-16T14:51:49.068Z,17.43
2022-08-16T14:53:52.902Z,17.39
2022-08-16T14:55:57.463Z,17.34
2022-08-16T14:58:04.589Z,17.33
2022-08-16T15:00:12.714Z,17.32
2022-08-16T15:02:33.818Z,17.33
2022-08-16T15:04:40.003Z,17.35
2022-08-16T15:06:52.819Z,17.36
2022-08-16T15:08:59.390Z,17.38
2022-08-16T15:11:03.959Z,17.37
2022-08-16T15:13:10.925Z,17.32
2022-08-16T15:15:20.513Z,17.28
2022-08-16T15:17:34.067Z,17.28
2022-08-16T15:19:41.415Z,17.27
2022-08-16T15:21:45.085Z,17.25
2022-08-16T15:23:49.528Z,17.26
2022-08-16T15:26:02.564Z,17.27
2022-08-16T15:28:30.792Z,17.29
2022-08-16T15:30:56.869Z,17.34
2022-08-16T15:33:04.743Z,17.36
2022-08-16T15:35:10.531Z,17.36
2022-08-16T15:37:17.064Z,17.36
2022-08-16T15:39:30.136Z,17.39
2022-08-16T15:42:07.046Z,17.43
2022-08-16T15:44:22.422Z,17.43
2022-08-16T15:46:34.937Z,17.46
2022-08-16T15:48:50.114Z,17.46
2022-08-16T15:51:00.416Z,17.45
2022-08-16T15:53:12.586Z,17.43
2022-08-16T15:55:31.095Z,17.39
2022-08-16T15:57:41.339Z,17.35
2022-08-16T15:59:55.549Z,17.34
2022-08-16T16:02:01.011Z,17.34
2022-08-16T16:04:04.971Z,17.34
2022-08-16T16:06:12.356Z,17.34
2022-08-16T16:08:24.005Z,17.31
2022-08-16T16:10:29.783Z,17.30
2022-08-16T16:12:50.990Z,17.28
2022-08-16T16:14:59.599Z,17.26
2022-08-16T16:17:05.704Z,17.25
2022-08-16T16:19:09.555Z,17.27
2022-08-16T16:21:20.577Z,17.29
2022-08-16T16:23:28.114Z,17.27
2022-08-16T16:25:34.428Z,17.25
2022-08-16T16:27:38.726Z,17.24
2022-08-16T16:29:46.155Z,17.24
2022-08-16T16:31:59.830Z,17.24
2022-08-16T16:34:05.536Z,17.25
2022-08-16T16:36:16.132Z,17.23
2022-08-16T16:38:20.382Z,17.17
2022-08-16T16:40:31.340Z,17.19
2022-08-16T16:42:44.322Z,17.18
2022-08-16T16:44:51.070Z,17.21
2022-08-16T16:46:57.828Z,17.21
2022-08-16T16:49:04.103Z,17.22
2022-08-16T16:51:10.344Z,17.22
2022-08-16T16:53:17.076Z,17.17
2022-08-16T16:55:22.063Z,17.12
2022-08-16T16:57:46.713Z,17.07
2022-08-16T16:59:55.622Z,17.07
2022-08-16T17:02:41.843Z,17.11
2022-08-16T17:04:32.402Z,17.14
2022-08-16T17:06:37.347Z,17.19
2022-08-16T17:08:42.107Z,17.21
2022-08-16T17:10:49.057Z,17.20
2022-08-16T17:12:56.591Z,17.23
2022-08-16T17:15:00.811Z,17.25
2022-08-16T17:17:09.379Z,17.24
2022-08-16T17:19:16.902Z,17.23
2022-08-16T17:21:26.395Z,17.24
2022-08-16T17:23:59.583Z,17.25
2022-08-16T17:25:58.724Z,17.21
2022-08-16T17:28:59.721Z,17.22
2022-08-16T17:30:45.017Z,17.24
2022-08-16T17:32:54.582Z,17.27
2022-08-16T17:35:00.443Z,17.28
2022-08-16T17:37:08.069Z,17.29
2022-08-16T17:39:12.528Z,17.28
2022-08-16T17:41:18.981Z,17.28
2022-08-16T17:43:26.089Z,17.29
2022-08-16T17:45:30.300Z,17.25
2022-08-16T17:47:34.244Z,17.24
2022-08-16T17:49:39.496Z,17.18
2022-08-16T17:51:43.391Z,17.17
2022-08-16T17:53:50.432Z,17.15
2022-08-16T17:55:55.979Z,17.16
2022-08-16T17:58:00.715Z,17.14
2022-08-16T18:00:20.099Z,17.11
2022-08-16T18:02:44.476Z,17.10
2022-08-16T18:04:50.442Z,17.12
2022-08-16T18:06:54.353Z,17.13
2022-08-16T18:09:03.775Z,17.13
2022-08-16T18:11:10.526Z,17.12
2022-08-16T18:13:16.611Z,17.11
2022-08-16T18:15:21.569Z,17.04
2022-08-16T18:17:25.592Z,17.04
2022-08-16T18:19:29.354Z,17.02
2022-08-16T18:21:51.878Z,17.02
2022-08-16T18:23:55.491Z,17.00
2022-08-16T18:26:02.183Z,16.98
2022-08-16T18:28:05.949Z,16.95
2022-08-16T18:30:10.661Z,16.96
2022-08-16T18:32:15.255Z,16.90
2022-08-16T18:34:25.840Z,16.88
2022-08-16T18:36:29.690Z,16.88
2022-08-16T18:38:38.165Z,16.86
2022-08-16T18:40:42.906Z,16.85
2022-08-16T18:42:58.247Z,16.86
2022-08-16T18:45:05.154Z,16.80
2022-08-16T18:47:09.314Z,16.68
2022-08-16T18:49:17.807Z,16.64
2022-08-16T18:51:25.152Z,16.56
2022-08-16T18:53:29.762Z,16.56
2022-08-16T18:55:36.119Z,16.47
2022-08-16T18:57:50.684Z,16.44
2022-08-16T18:59:54.509Z,16.42
2022-08-16T19:02:04.942Z,16.45
2022-08-16T19:04:50.524Z,16.46
2022-08-16T19:06:32.517Z,16.44
2022-08-16T19:08:36.459Z,16.42
2022-08-16T19:10:43.646Z,16.34
2022-08-16T19:12:48.530Z,16.30
2022-08-16T19:14:52.387Z,16.24
2022-08-16T19:16:56.396Z,16.22
2022-08-16T19:19:00.113Z,16.17
2022-08-16T19:21:03.732Z,16.13
2022-08-16T19:23:13.575Z,16.13
2022-08-16T19:25:19.318Z,16.11
2022-08-16T19:27:24.308Z,16.13
2022-08-16T19:29:35.907Z,16.11
2022-08-16T19:31:39.505Z,16.11
2022-08-16T19:33:53.320Z,16.11
2022-08-16T19:35:57.745Z,16.10
2022-08-16T19:38:01.549Z,16.08
2022-08-16T19:40:06.575Z,16.04
2022-08-16T19:42:31.533Z,16.05
2022-08-16T19:44:35.292Z,16.04
2022-08-16T19:46:41.797Z,16.06
2022-08-16T19:48:46.029Z,16.05
2022-08-16T19:50:49.644Z,16.00
2022-08-16T19:52:53.273Z,15.98
2022-08-16T19:55:01.068Z,15.97
2022-08-16T19:57:05.523Z,15.92
2022-08-16T19:59:20.408Z,15.82
2022-08-16T20:01:25.584Z,15.74
2022-08-16T20:03:29.133Z,15.70
2022-08-16T20:05:35.397Z,15.68
2022-08-16T20:07:38.982Z,15.64
2022-08-16T20:09:44.413Z,15.62
2022-08-16T20:11:49.290Z,15.60
2022-08-16T20:13:52.898Z,15.60
2022-08-16T20:15:58.042Z,15.56
2022-08-16T20:18:01.935Z,15.59
2022-08-16T20:20:06.661Z,15.59
2022-08-16T20:22:49.754Z,15.61
2022-08-16T20:24:48.566Z,15.61
2022-08-16T20:26:52.112Z,15.59
2022-08-16T20:28:56.050Z,15.59
2022-08-16T20:31:01.295Z,15.55
2022-08-16T20:33:10.764Z,15.49
2022-08-16T20:35:20.109Z,15.44
2022-08-16T20:37:24.202Z,15.37
2022-08-16T20:39:28.039Z,15.29
2022-08-16T20:41:33.085Z,15.22
2022-08-16T20:43:37.144Z,15.20
2022-08-16T20:45:43.114Z,15.13
2022-08-16T20:47:48.157Z,15.05
2022-08-16T20:49:54.743Z,15.04
2022-08-16T20:51:59.758Z,14.98
2022-08-16T20:54:03.686Z,14.97
2022-08-16T20:56:08.175Z,14.93
2022-08-16T20:58:12.559Z,14.96
2022-08-16T21:00:18.177Z,14.93
2022-08-16T21:02:26.729Z,14.86
2022-08-16T21:04:32.121Z,14.83
2022-08-16T21:06:38.535Z,14.82
2022-08-16T21:08:52.337Z,14.83
2022-08-16T21:10:58.695Z,14.80
2022-08-16T21:13:04.145Z,14.75
2022-08-16T21:15:09.277Z,14.72
2022-08-16T21:17:16.328Z,14.65
2022-08-16T21:19:20.442Z,14.60
2022-08-16T21:21:32.038Z,14.58
2022-08-16T21:23:37.480Z,14.56
2022-08-16T21:25:51.203Z,14.51
2022-08-16T21:28:40.447Z,14.42
2022-08-16T21:30:32.347Z,14.39
2022-08-16T21:32:36.439Z,14.36
2022-08-16T21:34:41.616Z,14.35
2022-08-16T21:36:46.708Z,14.32
2022-08-16T21:38:50.386Z,14.27
2022-08-16T21:40:54.252Z,14.26
2022-08-16T21:43:07.808Z,14.24
2022-08-16T21:45:15.031Z,14.26
2022-08-16T21:47:19.008Z,14.21
2022-08-16T21:49:22.597Z,14.17
2022-08-16T21:51:26.223Z,14.12
2022-08-16T21:53:31.544Z,14.13
2022-08-16T21:55:35.204Z,14.12
2022-08-16T21:57:38.944Z,14.14
2022-08-16T21:59:42.760Z,14.13
2022-08-16T22:01:46.944Z,14.09
2022-08-16T22:04:35.885Z,14.09
2022-08-16T22:06:14.802Z,14.10
2022-08-16T22:08:19.802Z,14.11
2022-08-16T22:11:07.869Z,14.12
2022-08-16T22:12:49.596Z,14.12
2022-08-16T22:14:53.866Z,14.10
2022-08-16T22:16:57.446Z,14.09
2022-08-16T22:19:01.119Z,14.08
2022-08-16T22:21:04.831Z,14.07
2022-08-16T22:23:11.060Z,14.04
2022-08-16T22:25:16.350Z,14.03
2022-08-16T22:27:21.512Z,14.04
2022-08-16T22:29:25.943Z,14.03
2022-08-16T22:31:29.940Z,14.00
2022-08-16T22:33:33.590Z,13.99
2022-08-16T22:35:42.637Z,13.99
2022-08-16T22:38:50.599Z,14.01
2022-08-16T22:40:10.233Z,13.98
2022-08-16T22:42:14.036Z,13.98
2022-08-16T22:44:19.590Z,13.96
2022-08-16T22:46:23.286Z,13.96
2022-08-16T22:48:26.880Z,13.96
2022-08-16T22:50:31.630Z,13.95
2022-08-16T22:52:48.887Z,13.92
2022-08-16T22:55:02.881Z,13.90
2022-08-16T22:57:07.935Z,13.88
2022-08-16T22:59:11.835Z,13.88
2022-08-16T23:01:18.473Z,13.81
2022-08-16T23:03:22.565Z,13.78
2022-08-16T23:05:28.511Z,13.76
2022-08-16T23:07:31.962Z,13.71
2022-08-16T23:09:35.548Z,13.68
2022-08-16T23:11:39.530Z,13.67
2022-08-16T23:13:53.076Z,13.66
2022-08-16T23:16:00.994Z,13.66
2022-08-16T23:18:07.565Z,13.62
2022-08-16T23:20:12.280Z,13.60
2022-08-16T23:22:16.150Z,13.56
2022-08-16T23:24:21.386Z,13.54
2022-08-16T23:26:46.315Z,13.51
2022-08-16T23:28:48.367Z,13.48
2022-08-16T23:30:52.076Z,13.47
2022-08-16T23:32:59.795Z,13.45
2022-08-16T23:35:05.882Z,13.43
2022-08-16T23:37:10.686Z,13.38
2022-08-16T23:39:14.260Z,13.31
2022-08-16T23:41:18.036Z,13.29
2022-08-16T23:43:23.527Z,13.25
2022-08-16T23:45:28.567Z,13.22
2022-08-16T23:47:32.219Z,13.18
2022-08-16T23:49:58.371Z,13.17
2022-08-16T23:52:08.168Z,13.14
2022-08-16T23:54:12.024Z,13.11
2022-08-16T23:56:19.354Z,13.08
2022-08-16T23:58:25.217Z,13.03
